sensor_id;sensor_type;location;lat;lon;timestamp;P1;durP1;ratioP1;P2;durP2;ratioP2
19816;SDS011;68323;49.394;8.434;2024-01-15T00:02:08;38.33;;;15.70;;
19816;SDS011;68323;49.394;8.434;2024-01-15T00:04:37;37.30;;;15.40;;
19816;SDS011;68323;49.394;8.434;2024-01-15T00:07:06;37.23;;;15.53;;
19816;SDS011;68323;49.394;8.434;2024-01-15T00:09:32;41.00;;;16.43;;
19816;SDS011;68323;49.394;8.434;2024-01-15T00:11:58;37.43;;;15.63;;
19816;SDS011;68323;49.394;8.434;2024-01-15T00:14:24;38.87;;;15.50;;
19816;SDS011;68323;49.394;8.434;2024-01-15T00:16:50;34.03;;;14.67;;
19816;SDS011;68323;49.394;8.434;2024-01-15T00:19:16;35.33;;;14.73;;
19816;SDS011;68323;49.394;8.434;2024-01-15T00:21:42;36.03;;;14.83;;
19816;SDS011;68323;49.394;8.434;2024-01-15T00:24:08;35.00;;;14.17;;
19816;SDS011;68323;49.394;8.434;2024-01-15T00:26:34;32.20;;;13.83;;
19816;SDS011;68323;49.394;8.434;2024-01-15T00:28:59;34.17;;;14.63;;
19816;SDS011;68323;49.394;8.434;2024-01-15T00:31:25;38.93;;;16.07;;
19816;SDS011;68323;49.394;8.434;2024-01-15T00:33:51;40.57;;;15.80;;
19816;SDS011;68323;49.394;8.434;2024-01-15T00:36:17;40.43;;;15.37;;
19816;SDS011;68323;49.394;8.434;2024-01-15T00:38:43;36.00;;;15.10;;
19816;SDS011;68323;49.394;8.434;2024-01-15T00:41:09;40.83;;;16.20;;
19816;SDS011;68323;49.394;8.434;2024-01-15T00:43:35;44.03;;;16.17;;
19816;SDS011;68323;49.394;8.434;2024-01-15T00:46:04;42.23;;;17.07;;
19816;SDS011;68323;49.394;8.434;2024-01-15T00:48:30;43.00;;;17.10;;
19816;SDS011;68323;49.394;8.434;2024-01-15T00:50:56;45.17;;;17.47;;
19816;SDS011;68323;49.394;8.434;2024-01-15T00:53:21;47.70;;;17.50;;
19816;SDS011;68323;49.394;8.434;2024-01-15T00:55:47;45.00;;;17.50;;
19816;SDS011;68323;49.394;8.434;2024-01-15T00:58:13;41.07;;;16.17;;
19816;SDS011;68323;49.394;8.434;2024-01-15T01:00:39;49.37;;;18.60;;
19816;SDS011;68323;49.394;8.434;2024-01-15T01:03:05;39.47;;;16.10;;
19816;SDS011;68323;49.394;8.434;2024-01-15T01:05:31;46.27;;;18.10;;
19816;SDS011;68323;49.394;8.434;2024-01-15T01:07:56;44.67;;;18.03;;
19816;SDS011;68323;49.394;8.434;2024-01-15T01:10:22;43.70;;;17.27;;
19816;SDS011;68323;49.394;8.434;2024-01-15T01:12:47;43.63;;;17.23;;
19816;SDS011;68323;49.394;8.434;2024-01-15T01:15:13;45.13;;;18.37;;
19816;SDS011;68323;49.394;8.434;2024-01-15T01:17:39;43.40;;;17.03;;
19816;SDS011;68323;49.394;8.434;2024-01-15T01:20:04;46.37;;;18.33;;
19816;SDS011;68323;49.394;8.434;2024-01-15T01:22:33;50.77;;;18.20;;
19816;SDS011;68323;49.394;8.434;2024-01-15T01:24:59;47.00;;;18.70;;
19816;SDS011;68323;49.394;8.434;2024-01-15T01:27:24;50.33;;;17.87;;
19816;SDS011;68323;49.394;8.434;2024-01-15T01:29:50;43.03;;;17.23;;
19816;SDS011;68323;49.394;8.434;2024-01-15T01:32:15;49.33;;;18.57;;
19816;SDS011;68323;49.394;8.434;2024-01-15T01:34:41;45.30;;;17.50;;
19816;SDS011;68323;49.394;8.434;2024-01-15T01:37:10;45.90;;;17.70;;
19816;SDS011;68323;49.394;8.434;2024-01-15T01:39:38;45.77;;;17.60;;
19816;SDS011;68323;49.394;8.434;2024-01-15T01:42:04;40.90;;;16.90;;
19816;SDS011;68323;49.394;8.434;2024-01-15T01:44:30;44.40;;;17.57;;
19816;SDS011;68323;49.394;8.434;2024-01-15T01:46:56;43.50;;;17.43;;
19816;SDS011;68323;49.394;8.434;2024-01-15T01:49:23;47.60;;;18.37;;
19816;SDS011;68323;49.394;8.434;2024-01-15T01:51:49;44.00;;;17.93;;
19816;SDS011;68323;49.394;8.434;2024-01-15T01:54:16;44.33;;;16.83;;
19816;SDS011;68323;49.394;8.434;2024-01-15T01:56:42;45.70;;;17.70;;
19816;SDS011;68323;49.394;8.434;2024-01-15T01:59:08;44.67;;;17.50;;
19816;SDS011;68323;49.394;8.434;2024-01-15T02:01:36;45.50;;;17.37;;
19816;SDS011;68323;49.394;8.434;2024-01-15T02:04:01;45.13;;;17.67;;
19816;SDS011;68323;49.394;8.434;2024-01-15T02:06:29;39.87;;;15.40;;
19816;SDS011;68323;49.394;8.434;2024-01-15T02:08:54;37.97;;;15.83;;
19816;SDS011;68323;49.394;8.434;2024-01-15T02:11:20;40.53;;;16.30;;
19816;SDS011;68323;49.394;8.434;2024-01-15T02:13:46;39.43;;;15.77;;
19816;SDS011;68323;49.394;8.434;2024-01-15T02:16:11;38.87;;;15.40;;
19816;SDS011;68323;49.394;8.434;2024-01-15T02:18:43;36.17;;;15.27;;
19816;SDS011;68323;49.394;8.434;2024-01-15T02:21:10;35.90;;;14.83;;
19816;SDS011;68323;49.394;8.434;2024-01-15T02:23:36;36.67;;;14.87;;
19816;SDS011;68323;49.394;8.434;2024-01-15T02:26:02;37.30;;;14.97;;
19816;SDS011;68323;49.394;8.434;2024-01-15T02:28:29;35.57;;;14.40;;
19816;SDS011;68323;49.394;8.434;2024-01-15T02:30:55;35.23;;;14.50;;
19816;SDS011;68323;49.394;8.434;2024-01-15T02:33:20;35.13;;;13.90;;
19816;SDS011;68323;49.394;8.434;2024-01-15T02:35:46;36.67;;;14.30;;
19816;SDS011;68323;49.394;8.434;2024-01-15T02:38:14;34.07;;;14.03;;
19816;SDS011;68323;49.394;8.434;2024-01-15T02:40:40;32.53;;;14.13;;
19816;SDS011;68323;49.394;8.434;2024-01-15T02:43:06;38.13;;;14.57;;
19816;SDS011;68323;49.394;8.434;2024-01-15T02:45:32;36.23;;;14.57;;
19816;SDS011;68323;49.394;8.434;2024-01-15T02:47:57;41.53;;;15.13;;
19816;SDS011;68323;49.394;8.434;2024-01-15T02:50:23;33.00;;;13.67;;
19816;SDS011;68323;49.394;8.434;2024-01-15T02:52:48;37.73;;;14.73;;
19816;SDS011;68323;49.394;8.434;2024-01-15T02:55:14;34.73;;;14.87;;
19816;SDS011;68323;49.394;8.434;2024-01-15T02:57:40;34.77;;;14.27;;
19816;SDS011;68323;49.394;8.434;2024-01-15T03:00:06;37.00;;;14.37;;
19816;SDS011;68323;49.394;8.434;2024-01-15T03:02:32;36.80;;;14.27;;
19816;SDS011;68323;49.394;8.434;2024-01-15T03:04:58;38.00;;;14.27;;
19816;SDS011;68323;49.394;8.434;2024-01-15T03:07:24;36.87;;;14.33;;
19816;SDS011;68323;49.394;8.434;2024-01-15T03:09:49;39.97;;;15.07;;
19816;SDS011;68323;49.394;8.434;2024-01-15T03:12:15;38.50;;;14.93;;
19816;SDS011;68323;49.394;8.434;2024-01-15T03:14:41;34.63;;;14.33;;
19816;SDS011;68323;49.394;8.434;2024-01-15T03:17:07;34.33;;;14.53;;
19816;SDS011;68323;49.394;8.434;2024-01-15T03:19:34;35.47;;;13.67;;
19816;SDS011;68323;49.394;8.434;2024-01-15T03:22:00;36.70;;;14.23;;
19816;SDS011;68323;49.394;8.434;2024-01-15T03:24:27;37.17;;;14.90;;
19816;SDS011;68323;49.394;8.434;2024-01-15T03:26:53;35.07;;;14.00;;
19816;SDS011;68323;49.394;8.434;2024-01-15T03:29:18;34.83;;;14.47;;
19816;SDS011;68323;49.394;8.434;2024-01-15T03:31:44;38.27;;;14.63;;
19816;SDS011;68323;49.394;8.434;2024-01-15T03:34:09;37.97;;;14.97;;
19816;SDS011;68323;49.394;8.434;2024-01-15T03:36:35;41.77;;;16.63;;
19816;SDS011;68323;49.394;8.434;2024-01-15T03:39:01;43.27;;;15.53;;
19816;SDS011;68323;49.394;8.434;2024-01-15T03:41:26;36.00;;;14.70;;
19816;SDS011;68323;49.394;8.434;2024-01-15T03:43:52;37.43;;;14.30;;
19816;SDS011;68323;49.394;8.434;2024-01-15T03:46:17;35.07;;;14.27;;
19816;SDS011;68323;49.394;8.434;2024-01-15T03:48:43;33.33;;;14.63;;
19816;SDS011;68323;49.394;8.434;2024-01-15T03:51:08;37.53;;;14.33;;
19816;SDS011;68323;49.394;8.434;2024-01-15T03:53:34;41.23;;;15.20;;
19816;SDS011;68323;49.394;8.434;2024-01-15T03:55:59;36.40;;;14.87;;
19816;SDS011;68323;49.394;8.434;2024-01-15T03:58:25;38.37;;;15.50;;
19816;SDS011;68323;49.394;8.434;2024-01-15T04:00:50;37.83;;;15.30;;
19816;SDS011;68323;49.394;8.434;2024-01-15T04:03:16;36.17;;;15.13;;
19816;SDS011;68323;49.394;8.434;2024-01-15T04:05:42;36.03;;;15.33;;
19816;SDS011;68323;49.394;8.434;2024-01-15T04:08:07;37.17;;;15.10;;
19816;SDS011;68323;49.394;8.434;2024-01-15T04:10:33;37.80;;;14.93;;
19816;SDS011;68323;49.394;8.434;2024-01-15T04:12:58;32.93;;;14.10;;
19816;SDS011;68323;49.394;8.434;2024-01-15T04:15:25;35.83;;;14.27;;
19816;SDS011;68323;49.394;8.434;2024-01-15T04:17:51;45.07;;;16.47;;
19816;SDS011;68323;49.394;8.434;2024-01-15T04:20:17;36.40;;;15.10;;
19816;SDS011;68323;49.394;8.434;2024-01-15T04:22:43;37.90;;;16.40;;
19816;SDS011;68323;49.394;8.434;2024-01-15T04:25:09;38.57;;;15.80;;
19816;SDS011;68323;49.394;8.434;2024-01-15T04:27:34;36.27;;;14.23;;
19816;SDS011;68323;49.394;8.434;2024-01-15T04:30:00;35.77;;;14.83;;
19816;SDS011;68323;49.394;8.434;2024-01-15T04:32:25;38.23;;;15.83;;
19816;SDS011;68323;49.394;8.434;2024-01-15T04:34:51;35.40;;;14.40;;
19816;SDS011;68323;49.394;8.434;2024-01-15T04:37:16;38.57;;;15.43;;
19816;SDS011;68323;49.394;8.434;2024-01-15T04:39:42;36.77;;;14.63;;
19816;SDS011;68323;49.394;8.434;2024-01-15T04:42:08;40.53;;;15.13;;
19816;SDS011;68323;49.394;8.434;2024-01-15T04:44:33;35.00;;;14.43;;
19816;SDS011;68323;49.394;8.434;2024-01-15T04:46:59;32.37;;;13.50;;
19816;SDS011;68323;49.394;8.434;2024-01-15T04:49:24;31.70;;;13.37;;
19816;SDS011;68323;49.394;8.434;2024-01-15T04:51:52;35.10;;;13.63;;
19816;SDS011;68323;49.394;8.434;2024-01-15T04:54:17;31.27;;;13.40;;
19816;SDS011;68323;49.394;8.434;2024-01-15T04:56:43;32.30;;;13.27;;
19816;SDS011;68323;49.394;8.434;2024-01-15T04:59:09;29.17;;;12.83;;
19816;SDS011;68323;49.394;8.434;2024-01-15T05:01:35;36.93;;;14.83;;
19816;SDS011;68323;49.394;8.434;2024-01-15T05:04:01;37.80;;;15.70;;
19816;SDS011;68323;49.394;8.434;2024-01-15T05:06:26;37.80;;;15.43;;
19816;SDS011;68323;49.394;8.434;2024-01-15T05:08:53;39.53;;;15.20;;
19816;SDS011;68323;49.394;8.434;2024-01-15T05:11:18;32.60;;;13.37;;
19816;SDS011;68323;49.394;8.434;2024-01-15T05:13:44;36.63;;;14.70;;
19816;SDS011;68323;49.394;8.434;2024-01-15T05:16:09;36.67;;;14.93;;
19816;SDS011;68323;49.394;8.434;2024-01-15T05:18:35;35.13;;;15.40;;
19816;SDS011;68323;49.394;8.434;2024-01-15T05:21:02;34.87;;;14.77;;
19816;SDS011;68323;49.394;8.434;2024-01-15T05:23:28;36.83;;;15.10;;
19816;SDS011;68323;49.394;8.434;2024-01-15T05:25:53;40.63;;;17.03;;
19816;SDS011;68323;49.394;8.434;2024-01-15T05:28:19;41.07;;;15.97;;
19816;SDS011;68323;49.394;8.434;2024-01-15T05:30:44;41.63;;;16.97;;
19816;SDS011;68323;49.394;8.434;2024-01-15T05:33:10;39.93;;;16.43;;
19816;SDS011;68323;49.394;8.434;2024-01-15T05:35:35;39.63;;;16.40;;
19816;SDS011;68323;49.394;8.434;2024-01-15T05:38:01;41.07;;;16.57;;
19816;SDS011;68323;49.394;8.434;2024-01-15T05:40:27;32.77;;;13.40;;
19816;SDS011;68323;49.394;8.434;2024-01-15T05:42:53;29.23;;;13.00;;
19816;SDS011;68323;49.394;8.434;2024-01-15T05:45:19;29.63;;;12.73;;
19816;SDS011;68323;49.394;8.434;2024-01-15T05:47:44;37.67;;;18.20;;
19816;SDS011;68323;49.394;8.434;2024-01-15T05:50:10;35.50;;;15.63;;
19816;SDS011;68323;49.394;8.434;2024-01-15T05:52:35;66.57;;;32.30;;
19816;SDS011;68323;49.394;8.434;2024-01-15T05:55:01;43.93;;;20.27;;
19816;SDS011;68323;49.394;8.434;2024-01-15T05:57:27;39.70;;;16.73;;
19816;SDS011;68323;49.394;8.434;2024-01-15T05:59:53;65.43;;;30.60;;
19816;SDS011;68323;49.394;8.434;2024-01-15T06:02:19;53.10;;;26.53;;
19816;SDS011;68323;49.394;8.434;2024-01-15T06:04:44;37.87;;;17.83;;
19816;SDS011;68323;49.394;8.434;2024-01-15T06:07:10;65.17;;;31.30;;
19816;SDS011;68323;49.394;8.434;2024-01-15T06:09:36;55.73;;;27.07;;
19816;SDS011;68323;49.394;8.434;2024-01-15T06:12:01;51.47;;;23.80;;
19816;SDS011;68323;49.394;8.434;2024-01-15T06:14:27;45.13;;;21.43;;
19816;SDS011;68323;49.394;8.434;2024-01-15T06:16:52;48.40;;;21.27;;
19816;SDS011;68323;49.394;8.434;2024-01-15T06:19:18;45.53;;;21.77;;
19816;SDS011;68323;49.394;8.434;2024-01-15T06:21:44;44.27;;;19.57;;
19816;SDS011;68323;49.394;8.434;2024-01-15T06:24:09;71.43;;;37.67;;
19816;SDS011;68323;49.394;8.434;2024-01-15T06:26:35;50.57;;;24.93;;
19816;SDS011;68323;49.394;8.434;2024-01-15T06:29:01;42.93;;;19.47;;
19816;SDS011;68323;49.394;8.434;2024-01-15T06:31:27;44.07;;;18.60;;
19816;SDS011;68323;49.394;8.434;2024-01-15T06:33:53;39.87;;;17.80;;
19816;SDS011;68323;49.394;8.434;2024-01-15T06:36:19;44.73;;;20.87;;
19816;SDS011;68323;49.394;8.434;2024-01-15T06:38:45;42.90;;;20.40;;
19816;SDS011;68323;49.394;8.434;2024-01-15T06:41:10;40.90;;;18.70;;
19816;SDS011;68323;49.394;8.434;2024-01-15T06:43:36;43.73;;;19.37;;
19816;SDS011;68323;49.394;8.434;2024-01-15T06:46:01;43.43;;;19.13;;
19816;SDS011;68323;49.394;8.434;2024-01-15T06:48:27;42.70;;;18.57;;
19816;SDS011;68323;49.394;8.434;2024-01-15T06:50:53;41.97;;;19.17;;
19816;SDS011;68323;49.394;8.434;2024-01-15T06:53:18;45.27;;;19.47;;
19816;SDS011;68323;49.394;8.434;2024-01-15T06:55:44;43.77;;;19.03;;
19816;SDS011;68323;49.394;8.434;2024-01-15T06:58:09;43.87;;;18.93;;
19816;SDS011;68323;49.394;8.434;2024-01-15T07:00:35;40.47;;;18.03;;
19816;SDS011;68323;49.394;8.434;2024-01-15T07:03:00;37.97;;;17.40;;
19816;SDS011;68323;49.394;8.434;2024-01-15T07:05:26;135.60;;;39.60;;
19816;SDS011;68323;49.394;8.434;2024-01-15T07:07:51;83.83;;;28.40;;
19816;SDS011;68323;49.394;8.434;2024-01-15T07:10:17;156.70;;;47.47;;
19816;SDS011;68323;49.394;8.434;2024-01-15T07:12:43;134.13;;;39.33;;
19816;SDS011;68323;49.394;8.434;2024-01-15T07:15:09;44.87;;;20.60;;
19816;SDS011;68323;49.394;8.434;2024-01-15T07:17:34;39.27;;;17.37;;
19816;SDS011;68323;49.394;8.434;2024-01-15T07:20:00;41.87;;;17.57;;
19816;SDS011;68323;49.394;8.434;2024-01-15T07:22:26;43.90;;;20.00;;
19816;SDS011;68323;49.394;8.434;2024-01-15T07:24:52;43.37;;;18.50;;
19816;SDS011;68323;49.394;8.434;2024-01-15T07:27:17;43.47;;;17.90;;
19816;SDS011;68323;49.394;8.434;2024-01-15T07:29:43;51.13;;;20.93;;
19816;SDS011;68323;49.394;8.434;2024-01-15T07:32:09;47.27;;;20.10;;
19816;SDS011;68323;49.394;8.434;2024-01-15T07:34:34;43.97;;;20.77;;
19816;SDS011;68323;49.394;8.434;2024-01-15T07:37:00;50.90;;;21.63;;
19816;SDS011;68323;49.394;8.434;2024-01-15T07:39:26;51.77;;;21.37;;
19816;SDS011;68323;49.394;8.434;2024-01-15T07:41:53;40.83;;;17.43;;
19816;SDS011;68323;49.394;8.434;2024-01-15T07:44:19;37.13;;;17.30;;
19816;SDS011;68323;49.394;8.434;2024-01-15T07:46:48;36.30;;;17.20;;
19816;SDS011;68323;49.394;8.434;2024-01-15T07:49:13;36.07;;;16.97;;
19816;SDS011;68323;49.394;8.434;2024-01-15T07:51:39;36.53;;;17.07;;
19816;SDS011;68323;49.394;8.434;2024-01-15T07:54:05;38.60;;;18.07;;
19816;SDS011;68323;49.394;8.434;2024-01-15T07:56:31;36.27;;;17.20;;
19816;SDS011;68323;49.394;8.434;2024-01-15T07:58:57;37.30;;;18.87;;
19816;SDS011;68323;49.394;8.434;2024-01-15T08:01:23;40.80;;;19.53;;
19816;SDS011;68323;49.394;8.434;2024-01-15T08:03:48;40.53;;;19.57;;
19816;SDS011;68323;49.394;8.434;2024-01-15T08:06:14;37.13;;;16.93;;
19816;SDS011;68323;49.394;8.434;2024-01-15T08:08:39;39.17;;;17.93;;
19816;SDS011;68323;49.394;8.434;2024-01-15T08:11:05;39.60;;;18.50;;
19816;SDS011;68323;49.394;8.434;2024-01-15T08:13:31;39.97;;;17.93;;
19816;SDS011;68323;49.394;8.434;2024-01-15T08:15:56;42.40;;;19.77;;
19816;SDS011;68323;49.394;8.434;2024-01-15T08:18:22;36.20;;;16.37;;
19816;SDS011;68323;49.394;8.434;2024-01-15T08:20:47;39.10;;;17.97;;
19816;SDS011;68323;49.394;8.434;2024-01-15T08:23:13;39.87;;;18.10;;
19816;SDS011;68323;49.394;8.434;2024-01-15T08:25:39;65.23;;;18.83;;
19816;SDS011;68323;49.394;8.434;2024-01-15T08:28:04;186.07;;;21.63;;
19816;SDS011;68323;49.394;8.434;2024-01-15T08:30:30;70.07;;;18.33;;
19816;SDS011;68323;49.394;8.434;2024-01-15T08:32:56;45.73;;;19.30;;
19816;SDS011;68323;49.394;8.434;2024-01-15T08:35:22;34.10;;;16.37;;
19816;SDS011;68323;49.394;8.434;2024-01-15T08:37:48;46.57;;;17.17;;
19816;SDS011;68323;49.394;8.434;2024-01-15T08:40:14;36.17;;;17.13;;
19816;SDS011;68323;49.394;8.434;2024-01-15T08:42:40;35.30;;;16.10;;
19816;SDS011;68323;49.394;8.434;2024-01-15T08:45:06;35.20;;;16.83;;
19816;SDS011;68323;49.394;8.434;2024-01-15T08:47:32;31.00;;;15.30;;
19816;SDS011;68323;49.394;8.434;2024-01-15T08:49:57;36.00;;;16.90;;
19816;SDS011;68323;49.394;8.434;2024-01-15T08:52:24;33.33;;;16.13;;
19816;SDS011;68323;49.394;8.434;2024-01-15T08:54:49;35.50;;;17.20;;
19816;SDS011;68323;49.394;8.434;2024-01-15T08:57:15;33.97;;;16.43;;
19816;SDS011;68323;49.394;8.434;2024-01-15T08:59:41;51.73;;;27.37;;
19816;SDS011;68323;49.394;8.434;2024-01-15T09:02:07;45.20;;;21.47;;
19816;SDS011;68323;49.394;8.434;2024-01-15T09:04:32;38.00;;;18.37;;
19816;SDS011;68323;49.394;8.434;2024-01-15T09:06:58;48.30;;;25.03;;
19816;SDS011;68323;49.394;8.434;2024-01-15T09:09:24;37.40;;;19.27;;
19816;SDS011;68323;49.394;8.434;2024-01-15T09:11:50;58.57;;;29.73;;
19816;SDS011;68323;49.394;8.434;2024-01-15T09:14:16;44.57;;;22.53;;
19816;SDS011;68323;49.394;8.434;2024-01-15T09:16:41;41.43;;;20.20;;
19816;SDS011;68323;49.394;8.434;2024-01-15T09:19:07;52.57;;;26.60;;
19816;SDS011;68323;49.394;8.434;2024-01-15T09:21:32;35.23;;;17.03;;
19816;SDS011;68323;49.394;8.434;2024-01-15T09:23:58;33.10;;;15.50;;
19816;SDS011;68323;49.394;8.434;2024-01-15T09:26:24;34.47;;;17.30;;
19816;SDS011;68323;49.394;8.434;2024-01-15T09:28:49;32.97;;;17.33;;
19816;SDS011;68323;49.394;8.434;2024-01-15T09:31:15;33.30;;;16.07;;
19816;SDS011;68323;49.394;8.434;2024-01-15T09:33:42;28.27;;;14.47;;
19816;SDS011;68323;49.394;8.434;2024-01-15T09:36:09;27.33;;;14.90;;
19816;SDS011;68323;49.394;8.434;2024-01-15T09:38:34;28.07;;;14.87;;
19816;SDS011;68323;49.394;8.434;2024-01-15T09:41:00;25.37;;;13.93;;
19816;SDS011;68323;49.394;8.434;2024-01-15T09:43:25;25.77;;;13.33;;
19816;SDS011;68323;49.394;8.434;2024-01-15T09:45:51;27.90;;;14.70;;
19816;SDS011;68323;49.394;8.434;2024-01-15T09:48:18;26.33;;;14.27;;
19816;SDS011;68323;49.394;8.434;2024-01-15T09:50:44;29.20;;;15.40;;
19816;SDS011;68323;49.394;8.434;2024-01-15T09:53:10;26.07;;;13.70;;
19816;SDS011;68323;49.394;8.434;2024-01-15T09:55:36;26.00;;;13.97;;
19816;SDS011;68323;49.394;8.434;2024-01-15T09:58:05;26.73;;;13.53;;
19816;SDS011;68323;49.394;8.434;2024-01-15T10:00:31;25.67;;;12.87;;
19816;SDS011;68323;49.394;8.434;2024-01-15T10:03:01;24.60;;;13.23;;
19816;SDS011;68323;49.394;8.434;2024-01-15T10:05:28;22.97;;;12.50;;
19816;SDS011;68323;49.394;8.434;2024-01-15T10:07:54;21.47;;;11.90;;
19816;SDS011;68323;49.394;8.434;2024-01-15T10:10:22;21.23;;;11.73;;
19816;SDS011;68323;49.394;8.434;2024-01-15T10:12:49;22.93;;;12.10;;
19816;SDS011;68323;49.394;8.434;2024-01-15T10:15:15;25.77;;;13.07;;
19816;SDS011;68323;49.394;8.434;2024-01-15T10:17:42;23.30;;;12.80;;
19816;SDS011;68323;49.394;8.434;2024-01-15T10:20:11;26.20;;;12.43;;
19816;SDS011;68323;49.394;8.434;2024-01-15T10:22:45;26.77;;;13.37;;
19816;SDS011;68323;49.394;8.434;2024-01-15T10:25:14;26.03;;;13.90;;
19816;SDS011;68323;49.394;8.434;2024-01-15T10:27:40;28.63;;;14.77;;
19816;SDS011;68323;49.394;8.434;2024-01-15T10:30:07;25.37;;;14.03;;
19816;SDS011;68323;49.394;8.434;2024-01-15T10:32:36;25.83;;;13.40;;
19816;SDS011;68323;49.394;8.434;2024-01-15T10:35:01;27.00;;;14.07;;
19816;SDS011;68323;49.394;8.434;2024-01-15T10:37:29;30.23;;;14.60;;
19816;SDS011;68323;49.394;8.434;2024-01-15T10:40:01;28.10;;;13.73;;
19816;SDS011;68323;49.394;8.434;2024-01-15T10:42:29;23.47;;;12.53;;
19816;SDS011;68323;49.394;8.434;2024-01-15T10:44:55;30.37;;;16.10;;
19816;SDS011;68323;49.394;8.434;2024-01-15T10:47:21;24.80;;;13.33;;
19816;SDS011;68323;49.394;8.434;2024-01-15T10:49:47;27.60;;;13.57;;
19816;SDS011;68323;49.394;8.434;2024-01-15T10:52:13;35.10;;;14.07;;
19816;SDS011;68323;49.394;8.434;2024-01-15T10:54:40;27.70;;;15.33;;
19816;SDS011;68323;49.394;8.434;2024-01-15T10:57:08;26.47;;;14.10;;
19816;SDS011;68323;49.394;8.434;2024-01-15T10:59:33;27.03;;;13.77;;
19816;SDS011;68323;49.394;8.434;2024-01-15T11:02:01;25.57;;;13.60;;
19816;SDS011;68323;49.394;8.434;2024-01-15T11:04:26;25.53;;;13.97;;
19816;SDS011;68323;49.394;8.434;2024-01-15T11:06:53;37.27;;;20.73;;
19816;SDS011;68323;49.394;8.434;2024-01-15T11:09:20;30.70;;;15.53;;
19816;SDS011;68323;49.394;8.434;2024-01-15T11:11:46;30.67;;;14.97;;
19816;SDS011;68323;49.394;8.434;2024-01-15T11:17:00;25.97;;;14.10;;
19816;SDS011;68323;49.394;8.434;2024-01-15T11:19:26;25.97;;;14.53;;
19816;SDS011;68323;49.394;8.434;2024-01-15T11:22:49;23.77;;;13.00;;
19816;SDS011;68323;49.394;8.434;2024-01-15T11:25:02;23.77;;;12.50;;
19816;SDS011;68323;49.394;8.434;2024-01-15T11:30:09;26.50;;;14.53;;
19816;SDS011;68323;49.394;8.434;2024-01-15T11:32:39;27.73;;;15.30;;
19816;SDS011;68323;49.394;8.434;2024-01-15T11:35:08;24.53;;;13.83;;
19816;SDS011;68323;49.394;8.434;2024-01-15T11:37:56;25.67;;;13.37;;
19816;SDS011;68323;49.394;8.434;2024-01-15T11:43:00;44.57;;;18.40;;
19816;SDS011;68323;49.394;8.434;2024-01-15T11:45:28;26.33;;;12.73;;
19816;SDS011;68323;49.394;8.434;2024-01-15T11:50:33;18.03;;;9.70;;
19816;SDS011;68323;49.394;8.434;2024-01-15T11:53:00;16.90;;;9.97;;
19816;SDS011;68323;49.394;8.434;2024-01-15T11:55:28;17.43;;;9.70;;
19816;SDS011;68323;49.394;8.434;2024-01-15T11:57:59;14.03;;;7.90;;
19816;SDS011;68323;49.394;8.434;2024-01-15T12:00:26;17.03;;;9.57;;
19816;SDS011;68323;49.394;8.434;2024-01-15T12:02:53;15.03;;;8.70;;
19816;SDS011;68323;49.394;8.434;2024-01-15T12:05:19;15.30;;;8.17;;
19816;SDS011;68323;49.394;8.434;2024-01-15T12:07:46;14.90;;;9.00;;
19816;SDS011;68323;49.394;8.434;2024-01-15T12:10:13;16.17;;;9.37;;
19816;SDS011;68323;49.394;8.434;2024-01-15T12:15:37;15.20;;;9.10;;
19816;SDS011;68323;49.394;8.434;2024-01-15T12:18:06;13.40;;;8.20;;
19816;SDS011;68323;49.394;8.434;2024-01-15T12:20:33;14.67;;;9.23;;
19816;SDS011;68323;49.394;8.434;2024-01-15T12:22:59;17.23;;;9.33;;
19816;SDS011;68323;49.394;8.434;2024-01-15T12:25:24;15.10;;;8.87;;
19816;SDS011;68323;49.394;8.434;2024-01-15T12:27:52;16.83;;;9.10;;
19816;SDS011;68323;49.394;8.434;2024-01-15T12:30:18;17.80;;;9.93;;
19816;SDS011;68323;49.394;8.434;2024-01-15T12:32:44;15.50;;;9.77;;
19816;SDS011;68323;49.394;8.434;2024-01-15T12:35:12;17.00;;;9.53;;
19816;SDS011;68323;49.394;8.434;2024-01-15T12:37:41;16.23;;;9.13;;
19816;SDS011;68323;49.394;8.434;2024-01-15T12:40:08;23.13;;;11.50;;
19816;SDS011;68323;49.394;8.434;2024-01-15T12:42:35;19.83;;;10.97;;
19816;SDS011;68323;49.394;8.434;2024-01-15T12:45:01;20.80;;;11.90;;
19816;SDS011;68323;49.394;8.434;2024-01-15T12:47:29;33.63;;;19.73;;
19816;SDS011;68323;49.394;8.434;2024-01-15T12:49:55;16.17;;;9.20;;
19816;SDS011;68323;49.394;8.434;2024-01-15T12:52:22;14.43;;;8.83;;
19816;SDS011;68323;49.394;8.434;2024-01-15T12:54:48;13.60;;;8.00;;
19816;SDS011;68323;49.394;8.434;2024-01-15T12:57:15;15.00;;;9.23;;
19816;SDS011;68323;49.394;8.434;2024-01-15T12:59:41;15.17;;;8.27;;
19816;SDS011;68323;49.394;8.434;2024-01-15T13:02:07;15.60;;;8.90;;
19816;SDS011;68323;49.394;8.434;2024-01-15T13:04:33;15.57;;;8.97;;
19816;SDS011;68323;49.394;8.434;2024-01-15T13:06:58;13.60;;;8.40;;
19816;SDS011;68323;49.394;8.434;2024-01-15T13:09:24;14.37;;;8.40;;
19816;SDS011;68323;49.394;8.434;2024-01-15T13:11:49;13.10;;;8.13;;
19816;SDS011;68323;49.394;8.434;2024-01-15T13:14:15;14.13;;;9.03;;
19816;SDS011;68323;49.394;8.434;2024-01-15T13:16:41;13.83;;;8.37;;
19816;SDS011;68323;49.394;8.434;2024-01-15T13:19:07;14.13;;;8.67;;
19816;SDS011;68323;49.394;8.434;2024-01-15T13:21:34;13.67;;;8.30;;
19816;SDS011;68323;49.394;8.434;2024-01-15T13:23:59;12.07;;;7.50;;
19816;SDS011;68323;49.394;8.434;2024-01-15T13:26:25;12.83;;;7.93;;
19816;SDS011;68323;49.394;8.434;2024-01-15T13:28:50;12.70;;;7.73;;
19816;SDS011;68323;49.394;8.434;2024-01-15T13:31:16;13.97;;;7.87;;
19816;SDS011;68323;49.394;8.434;2024-01-15T13:33:41;13.07;;;7.83;;
19816;SDS011;68323;49.394;8.434;2024-01-15T13:36:07;12.50;;;8.00;;
19816;SDS011;68323;49.394;8.434;2024-01-15T13:38:35;13.13;;;7.60;;
19816;SDS011;68323;49.394;8.434;2024-01-15T13:41:02;11.80;;;7.33;;
19816;SDS011;68323;49.394;8.434;2024-01-15T13:43:29;13.87;;;7.93;;
19816;SDS011;68323;49.394;8.434;2024-01-15T13:45:55;13.30;;;7.87;;
19816;SDS011;68323;49.394;8.434;2024-01-15T13:48:20;12.20;;;7.40;;
19816;SDS011;68323;49.394;8.434;2024-01-15T13:50:46;213.97;;;12.07;;
19816;SDS011;68323;49.394;8.434;2024-01-15T13:53:11;18.03;;;8.00;;
19816;SDS011;68323;49.394;8.434;2024-01-15T13:55:37;25.37;;;8.97;;
19816;SDS011;68323;49.394;8.434;2024-01-15T13:58:02;40.80;;;8.70;;
19816;SDS011;68323;49.394;8.434;2024-01-15T14:00:30;21.17;;;8.00;;
19816;SDS011;68323;49.394;8.434;2024-01-15T14:02:56;14.47;;;7.73;;
19816;SDS011;68323;49.394;8.434;2024-01-15T14:05:22;15.70;;;8.07;;
19816;SDS011;68323;49.394;8.434;2024-01-15T14:07:48;14.30;;;7.37;;
19816;SDS011;68323;49.394;8.434;2024-01-15T14:10:14;15.17;;;7.33;;
19816;SDS011;68323;49.394;8.434;2024-01-15T14:12:39;13.77;;;7.13;;
19816;SDS011;68323;49.394;8.434;2024-01-15T14:15:05;13.13;;;7.20;;
19816;SDS011;68323;49.394;8.434;2024-01-15T14:17:31;19.90;;;7.87;;
19816;SDS011;68323;49.394;8.434;2024-01-15T14:19:57;11.23;;;6.67;;
19816;SDS011;68323;49.394;8.434;2024-01-15T14:22:22;13.47;;;6.87;;
19816;SDS011;68323;49.394;8.434;2024-01-15T14:24:48;12.03;;;6.27;;
19816;SDS011;68323;49.394;8.434;2024-01-15T14:27:14;11.93;;;6.60;;
19816;SDS011;68323;49.394;8.434;2024-01-15T14:29:40;11.57;;;6.87;;
19816;SDS011;68323;49.394;8.434;2024-01-15T14:32:06;12.53;;;6.50;;